Time;durP1;ratioP1;P1;durP2;ratioP2;P2;SDS_P1;SDS_P2;PMS_P1;PMS_P2;Temp;Humidity;BMP_temperature;BMP_pressure;BME280_temperature;BME280_humidity;BME280_pressure;Samples;Min_cycle;Max_cycle;Signal;HPM_P1;HPM_P2
2023/11/07 00:00:42;;;;;;;1.98;1.40;;;12.50;99.90;;;;;;5052811;28;20220;-79
2023/11/07 00:03:09;;;;;;;2.67;1.83;;;12.50;99.90;;;;;;5054015;28;20379;-77
2023/11/07 00:05:36;;;;;;;2.53;1.30;;;12.50;99.90;;;;;;5054620;28;20563;-77
2023/11/07 00:08:05;;;;;;;1.92;1.00;;;12.60;99.90;;;;;;5053906;28;20252;-79
2023/11/07 00:10:32;;;;;;;2.20;1.40;;;12.60;99.90;;;;;;5053881;28;20248;-79
2023/11/07 00:13:00;;;;;;;2.38;2.13;;;12.70;99.90;;;;;;5052610;28;20331;-77
2023/11/07 00:15:27;;;;;;;1.27;1.10;;;12.70;99.90;;;;;;5054160;28;20229;-79
2023/11/07 00:17:54;;;;;;;1.58;1.40;;;12.70;99.90;;;;;;5053433;28;20262;-79
2023/11/07 00:20:22;;;;;;;3.25;2.47;;;12.70;99.90;;;;;;5048531;28;20393;-79
2023/11/07 00:22:49;;;;;;;1.80;1.23;;;12.70;99.90;;;;;;5035015;28;20221;-79
2023/11/07 00:25:17;;;;;;;1.30;1.20;;;12.70;99.90;;;;;;5032497;28;20328;-79
2023/11/07 00:27:44;;;;;;;5.05;1.80;;;12.80;99.90;;;;;;5034869;28;20232;-77
2023/11/07 00:30:12;;;;;;;1.35;1.20;;;12.70;99.90;;;;;;5034355;28;20225;-77
2023/11/07 00:32:39;;;;;;;1.55;0.85;;;12.70;99.90;;;;;;5050839;28;20217;-79
2023/11/07 00:35:07;;;;;;;2.58;1.42;;;12.70;99.90;;;;;;5054217;28;20220;-79
2023/11/07 00:37:34;;;;;;;2.58;1.42;;;12.70;99.90;;;;;;5054743;28;20544;-77
2023/11/07 00:40:01;;;;;;;1.17;1.08;;;12.70;99.90;;;;;;5054040;28;20221;-79
2023/11/07 00:42:30;;;;;;;1.40;1.10;;;12.80;99.90;;;;;;5054090;28;20240;-79
2023/11/07 00:44:57;;;;;;;1.58;1.00;;;12.80;99.90;;;;;;5053539;28;20312;-79
2023/11/07 00:47:24;;;;;;;2.45;1.48;;;12.70;99.90;;;;;;5054217;28;20248;-79
2023/11/07 00:49:51;;;;;;;6.55;5.78;;;12.70;99.90;;;;;;5054334;28;20221;-77
2023/11/07 00:52:18;;;;;;;7.05;5.93;;;12.70;99.90;;;;;;5053651;28;20307;-79
2023/11/07 00:54:49;;;;;;;5.78;5.28;;;12.70;99.90;;;;;;5053759;28;20216;-79
2023/11/07 00:57:16;;;;;;;4.30;3.90;;;12.60;99.90;;;;;;5053834;28;20307;-80
2023/11/07 00:59:44;;;;;;;3.38;2.50;;;12.60;99.90;;;;;;5053958;28;20247;-77
2023/11/07 01:02:11;;;;;;;3.00;1.48;;;12.60;99.90;;;;;;5053004;28;20255;-79
2023/11/07 01:04:38;;;;;;;3.15;1.25;;;12.50;99.90;;;;;;5054403;28;20290;-80
2023/11/07 01:07:05;;;;;;;3.15;1.40;;;12.50;99.90;;;;;;5053706;28;20247;-77
2023/11/07 01:09:32;;;;;;;1.38;1.20;;;12.50;99.90;;;;;;5053659;28;20613;-77
2023/11/07 01:11:59;;;;;;;1.50;1.02;;;12.50;99.90;;;;;;5053296;28;20301;-77
2023/11/07 01:14:26;;;;;;;4.13;1.50;;;12.40;99.90;;;;;;5053622;28;20233;-77
2023/11/07 01:16:55;;;;;;;1.98;1.65;;;12.40;99.90;;;;;;5053949;28;20232;-77
2023/11/07 01:19:22;;;;;;;2.88;1.45;;;12.40;99.90;;;;;;5053053;28;20814;-77
2023/11/07 01:21:49;;;;;;;2.05;1.85;;;12.40;99.90;;;;;;5053769;28;20274;-80
2023/11/07 01:24:16;;;;;;;1.40;1.13;;;12.40;99.90;;;;;;5053067;28;20228;-77
2023/11/07 01:26:43;;;;;;;1.17;1.00;;;12.40;99.90;;;;;;5053723;28;20315;-80
2023/11/07 01:29:10;;;;;;;2.83;1.40;;;12.40;99.90;;;;;;5053491;28;20252;-78
2023/11/07 01:31:36;;;;;;;1.50;1.17;;;12.40;99.90;;;;;;5053523;28;20223;-80
2023/11/07 01:34:05;;;;;;;2.75;1.50;;;12.30;99.90;;;;;;5053152;28;20264;-78
2023/11/07 01:36:33;;;;;;;2.75;2.22;;;12.30;99.90;;;;;;5052862;28;20255;-78
2023/11/07 01:39:00;;;;;;;1.73;1.30;;;12.20;99.90;;;;;;5051180;28;20223;-80
2023/11/07 01:41:27;;;;;;;1.90;1.20;;;12.20;99.90;;;;;;5052945;28;20268;-80
2023/11/07 01:43:53;;;;;;;2.25;1.40;;;12.10;99.90;;;;;;5053458;28;20303;-80
2023/11/07 01:46:21;;;;;;;3.38;1.25;;;12.10;99.90;;;;;;5052637;28;20306;-80
2023/11/07 01:48:48;;;;;;;2.45;1.23;;;12.10;99.90;;;;;;5053547;28;20278;-79
2023/11/07 01:51:17;;;;;;;1.42;0.90;;;12.00;99.90;;;;;;5052388;28;20225;-80
2023/11/07 01:53:45;;;;;;;1.30;1.00;;;12.00;99.90;;;;;;5053485;28;20255;-78
2023/11/07 01:56:13;;;;;;;2.47;1.00;;;11.90;99.90;;;;;;5052733;28;20228;-78
2023/11/07 01:58:40;;;;;;;1.23;1.00;;;11.90;99.90;;;;;;5052836;28;20280;-80
2023/11/07 02:01:08;;;;;;;2.75;1.50;;;11.90;99.90;;;;;;5052442;28;20290;-79
2023/11/07 02:03:36;;;;;;;1.48;1.05;;;11.90;99.90;;;;;;5053077;28;20216;-78
2023/11/07 02:06:08;;;;;;;1.95;1.10;;;11.90;99.90;;;;;;5052533;28;20228;-79
2023/11/07 02:08:36;;;;;;;1.20;1.00;;;11.90;99.90;;;;;;5053063;28;20286;-80
2023/11/07 02:11:03;;;;;;;1.88;1.10;;;11.90;99.90;;;;;;5053301;28;20248;-80
2023/11/07 02:13:30;;;;;;;1.98;0.93;;;11.90;99.90;;;;;;5053066;28;20216;-80
2023/11/07 02:15:57;;;;;;;1.27;1.10;;;11.90;99.90;;;;;;5052921;28;20248;-78
2023/11/07 02:18:24;;;;;;;1.45;1.17;;;11.80;99.90;;;;;;5052490;28;20540;-80
2023/11/07 02:20:51;;;;;;;2.40;1.50;;;11.80;99.90;;;;;;5053028;28;20221;-79
2023/11/07 02:23:29;;;;;;;2.55;1.27;;;11.80;99.90;;;;;;5052283;28;20235;-78
2023/11/07 02:25:56;;;;;;;2.30;1.38;;;11.80;99.90;;;;;;5052995;28;20228;-80
2023/11/07 02:28:22;;;;;;;2.90;1.65;;;11.70;99.90;;;;;;5052200;28;20224;-80
2023/11/07 02:30:50;;;;;;;3.10;1.20;;;11.70;99.90;;;;;;5053028;28;20255;-80
2023/11/07 02:33:19;;;;;;;1.95;1.20;;;11.70;99.90;;;;;;5052701;28;20224;-80
2023/11/07 02:35:46;;;;;;;2.22;1.27;;;11.70;99.90;;;;;;5052387;28;20236;-80
2023/11/07 02:38:13;;;;;;;2.10;1.20;;;11.60;99.90;;;;;;5052140;28;20245;-80
2023/11/07 02:40:43;;;;;;;1.85;1.33;;;11.60;99.90;;;;;;5052910;28;20220;-80
2023/11/07 02:43:10;;;;;;;1.33;1.23;;;11.60;99.90;;;;;;5052251;28;20233;-80
2023/11/07 02:45:38;;;;;;;4.47;1.38;;;11.60;99.90;;;;;;5052516;28;20537;-80
2023/11/07 02:48:06;;;;;;;2.30;1.30;;;11.60;99.90;;;;;;5053539;28;20614;-80
2023/11/07 02:50:33;;;;;;;2.47;1.23;;;11.50;99.90;;;;;;5056152;28;20231;-80
2023/11/07 02:53:00;;;;;;;2.30;1.20;;;11.50;99.90;;;;;;5056599;28;20216;-80
2023/11/07 02:55:28;;;;;;;2.25;1.55;;;11.50;99.90;;;;;;5056004;28;20311;-80
2023/11/07 02:57:56;;;;;;;1.40;0.95;;;11.50;99.90;;;;;;5056286;28;20234;-79
2023/11/07 03:00:24;;;;;;;3.25;1.45;;;11.50;99.90;;;;;;5054840;28;20683;-78
2023/11/07 03:02:51;;;;;;;2.92;1.30;;;11.50;99.90;;;;;;5056380;28;20606;-78
2023/11/07 03:05:18;;;;;;;1.40;1.10;;;11.50;99.90;;;;;;5055710;28;20294;-79
2023/11/07 03:07:45;;;;;;;3.05;1.35;;;11.40;99.90;;;;;;5056210;28;20221;-80
2023/11/07 03:10:12;;;;;;;1.40;1.00;;;11.40;99.90;;;;;;5055303;28;20307;-79
2023/11/07 03:12:39;;;;;;;3.85;1.30;;;11.40;99.90;;;;;;5055924;28;20270;-79
2023/11/07 03:15:08;;;;;;;1.83;1.15;;;11.40;99.90;;;;;;5056064;28;20224;-80
2023/11/07 03:17:35;;;;;;;1.50;1.40;;;11.40;99.90;;;;;;5055439;28;20252;-78
2023/11/07 03:20:06;;;;;;;3.15;1.70;;;11.40;99.90;;;;;;5056060;28;20227;-78
2023/11/07 03:22:33;;;;;;;1.05;0.95;;;11.40;99.90;;;;;;5055543;28;20529;-78
2023/11/07 03:25:01;;;;;;;1.13;1.02;;;11.40;99.90;;;;;;5056021;28;20734;-78
2023/11/07 03:27:28;;;;;;;2.03;1.13;;;11.40;99.90;;;;;;5055378;28;20225;-78
2023/11/07 03:29:54;;;;;;;1.52;1.10;;;11.40;99.90;;;;;;5055781;28;20319;-78
2023/11/07 03:32:23;;;;;;;1.75;1.20;;;11.30;99.90;;;;;;5055471;28;20299;-80
2023/11/07 03:34:50;;;;;;;2.10;1.00;;;11.30;99.90;;;;;;5055574;28;20236;-80
2023/11/07 03:37:17;;;;;;;2.22;1.30;;;11.30;99.90;;;;;;5054842;28;20225;-80
2023/11/07 03:39:44;;;;;;;2.28;1.05;;;11.30;99.90;;;;;;5055685;28;20216;-80
2023/11/07 03:42:11;;;;;;;1.55;1.00;;;11.40;99.90;;;;;;5055205;28;20249;-78
2023/11/07 03:44:38;;;;;;;1.00;0.90;;;11.40;99.90;;;;;;5055287;28;20221;-79
2023/11/07 03:47:05;;;;;;;2.40;1.20;;;11.40;99.90;;;;;;5055565;28;20243;-78
2023/11/07 03:49:34;;;;;;;4.05;1.20;;;11.30;99.90;;;;;;5054864;28;20229;-78
2023/11/07 03:52:07;;;;;;;2.95;1.00;;;11.30;99.90;;;;;;5055402;28;20217;-77
2023/11/07 03:54:34;;;;;;;1.70;1.05;;;11.30;99.90;;;;;;5054764;28;20228;-79
2023/11/07 03:57:02;;;;;;;3.20;1.80;;;11.30;99.90;;;;;;5055361;28;20235;-78
2023/11/07 03:59:29;;;;;;;3.95;1.27;;;11.30;99.90;;;;;;5053985;28;20225;-80
2023/11/07 04:01:58;;;;;;;1.98;1.13;;;11.30;99.90;;;;;;5055219;28;20619;-78
2023/11/07 04:04:25;;;;;;;2.25;1.63;;;11.30;99.90;;;;;;5054316;28;20620;-80
2023/11/07 04:06:53;;;;;;;1.55;1.45;;;11.30;99.90;;;;;;5055340;28;20220;-78
2023/11/07 04:09:21;;;;;;;1.95;1.40;;;11.30;99.90;;;;;;5054388;28;20224;-80
2023/11/07 04:11:48;;;;;;;1.70;1.38;;;11.20;99.90;;;;;;5054884;28;20221;-78
2023/11/07 04:14:17;;;;;;;2.83;1.33;;;11.20;99.90;;;;;;5055066;28;20232;-78
2023/11/07 04:16:44;;;;;;;1.50;1.08;;;11.20;99.90;;;;;;5054715;28;20221;-78
2023/11/07 04:19:12;;;;;;;1.88;1.77;;;11.10;99.90;;;;;;5054865;28;20259;-78
2023/11/07 04:21:39;;;;;;;2.38;1.30;;;11.20;99.90;;;;;;5054445;28;20232;-78
2023/11/07 04:24:08;;;;;;;1.52;1.30;;;11.20;99.90;;;;;;5054705;28;20251;-78
2023/11/07 04:26:35;;;;;;;4.18;1.13;;;11.20;99.90;;;;;;5054232;28;20232;-79
2023/11/07 04:29:03;;;;;;;1.30;1.17;;;11.20;99.90;;;;;;5055040;28;20221;-78
2023/11/07 04:31:30;;;;;;;1.45;1.30;;;11.20;99.90;;;;;;5054548;28;20282;-78
2023/11/07 04:33:57;;;;;;;3.25;1.13;;;11.10;99.90;;;;;;5054195;28;20229;-78
2023/11/07 04:36:24;;;;;;;2.72;1.35;;;11.10;99.90;;;;;;5053700;28;20244;-81
2023/11/07 04:38:51;;;;;;;1.85;1.33;;;11.00;99.90;;;;;;5054729;28;20248;-81
2023/11/07 04:41:20;;;;;;;1.10;1.00;;;11.10;99.90;;;;;;5054425;28;20235;-80
2023/11/07 04:43:47;;;;;;;1.90;1.38;;;11.10;99.90;;;;;;5053841;28;20236;-79
2023/11/07 04:46:14;;;;;;;2.70;1.10;;;11.00;99.90;;;;;;5054349;28;20243;-78
2023/11/07 04:48:41;;;;;;;1.50;1.05;;;11.00;99.90;;;;;;5041389;28;20251;-78
2023/11/07 04:51:08;;;;;;;3.90;1.40;;;11.00;99.90;;;;;;5054454;28;20225;-79
2023/11/07 04:53:37;;;;;;;2.35;1.10;;;11.00;99.90;;;;;;5053708;28;20240;-80
2023/11/07 04:56:05;;;;;;;1.52;1.20;;;11.00;99.90;;;;;;5043038;28;20646;-80
2023/11/07 04:58:34;;;;;;;1.10;0.98;;;11.00;99.90;;;;;;5054156;28;20220;-78
2023/11/07 05:01:01;;;;;;;1.90;1.20;;;10.90;99.90;;;;;;5045121;28;20312;-80
2023/11/07 05:03:31;;;;;;;2.35;1.92;;;10.90;99.90;;;;;;5054168;28;20694;-78
2023/11/07 05:05:58;;;;;;;2.33;1.40;;;10.90;99.90;;;;;;5053747;28;20240;-78
2023/11/07 05:08:25;;;;;;;4.35;1.20;;;10.90;99.90;;;;;;5054044;28;20232;-79
2023/11/07 05:10:52;;;;;;;2.40;1.42;;;10.90;99.90;;;;;;5052854;28;20252;-79
2023/11/07 05:13:19;;;;;;;1.45;0.98;;;10.90;99.90;;;;;;5053801;28;20221;-78
2023/11/07 05:15:48;;;;;;;3.05;1.40;;;10.90;99.90;;;;;;5053918;28;20298;-78
2023/11/07 05:18:15;;;;;;;4.60;1.15;;;10.90;99.90;;;;;;5054195;28;20320;-78
2023/11/07 05:20:45;;;;;;;4.63;1.30;;;10.90;99.90;;;;;;5053813;28;20685;-79
2023/11/07 05:23:12;;;;;;;1.10;1.00;;;10.90;99.90;;;;;;5054092;28;20712;-77
2023/11/07 05:25:39;;;;;;;2.20;1.50;;;10.90;99.90;;;;;;5054222;28;20702;-79
2023/11/07 05:28:06;;;;;;;1.90;1.05;;;10.90;99.90;;;;;;5054180;28;20733;-79
2023/11/07 05:30:33;;;;;;;2.25;1.00;;;10.90;99.90;;;;;;5053924;28;20742;-79
2023/11/07 05:33:01;;;;;;;2.10;1.10;;;10.90;99.90;;;;;;5052820;28;20299;-79
2023/11/07 05:35:28;;;;;;;2.60;1.38;;;10.90;99.90;;;;;;5053519;28;20233;-78
2023/11/07 05:37:55;;;;;;;2.38;1.20;;;10.90;99.90;;;;;;5052150;28;20471;-80
2023/11/07 05:40:23;;;;;;;2.67;1.25;;;10.90;99.90;;;;;;5054246;28;20220;-80
2023/11/07 05:42:51;;;;;;;2.38;1.40;;;10.90;99.90;;;;;;5053547;28;20267;-80
2023/11/07 05:45:18;;;;;;;2.55;1.35;;;10.90;99.90;;;;;;5053588;28;20678;-80
2023/11/07 05:47:46;;;;;;;1.95;1.05;;;10.90;99.90;;;;;;5053136;28;20762;-79
2023/11/07 05:50:14;;;;;;;1.70;1.30;;;10.90;99.90;;;;;;5054069;28;20598;-79
2023/11/07 05:52:42;;;;;;;1.75;1.25;;;10.90;99.90;;;;;;5052812;28;20231;-78
2023/11/07 05:55:10;;;;;;;3.05;1.40;;;10.90;99.90;;;;;;5053257;28;20588;-77
2023/11/07 05:57:38;;;;;;;2.55;1.42;;;10.90;99.90;;;;;;5053449;28;20231;-77
2023/11/07 06:00:08;;;;;;;3.60;1.10;;;10.80;99.90;;;;;;5052608;28;20224;-78
2023/11/07 06:02:35;;;;;;;3.60;1.20;;;10.90;99.90;;;;;;5053063;28;20250;-78
2023/11/07 06:05:02;;;;;;;2.92;1.17;;;10.90;99.90;;;;;;5052906;28;20306;-78
2023/11/07 06:07:31;;;;;;;3.72;1.10;;;10.80;99.90;;;;;;5053454;28;20229;-79
2023/11/07 06:09:57;;;;;;;1.60;1.50;;;10.80;99.90;;;;;;5052468;28;20252;-78
2023/11/07 06:12:27;;;;;;;2.33;1.20;;;10.90;99.90;;;;;;5052470;28;20229;-78
2023/11/07 06:14:54;;;;;;;8.80;6.90;;;10.90;99.90;;;;;;5050726;28;20243;-80
2023/11/07 06:17:22;;;;;;;7.00;6.22;;;10.90;99.90;;;;;;5053446;28;20224;-78
2023/11/07 06:19:49;;;;;;;4.13;2.95;;;10.90;99.90;;;;;;5052515;28;20286;-78
2023/11/07 06:22:16;;;;;;;4.35;2.05;;;10.90;99.90;;;;;;5053814;28;20231;-80
2023/11/07 06:24:48;;;;;;;12.95;8.00;;;10.90;99.90;;;;;;5056996;28;20251;-78
2023/11/07 06:27:15;;;;;;;11.10;6.55;;;10.90;99.90;;;;;;5057089;28;20216;-78
2023/11/07 06:29:43;;;;;;;5.55;2.60;;;10.90;99.90;;;;;;5056994;28;20220;-80
2023/11/07 06:32:10;;;;;;;2.92;1.77;;;10.90;99.90;;;;;;5056809;28;20229;-80
2023/11/07 06:34:41;;;;;;;2.67;1.40;;;10.90;99.90;;;;;;5056916;28;20224;-79
2023/11/07 06:37:09;;;;;;;2.67;1.55;;;10.90;99.90;;;;;;5055328;28;20712;-78
2023/11/07 06:39:36;;;;;;;2.30;1.77;;;10.90;99.90;;;;;;5056695;28;20220;-78
2023/11/07 06:42:05;;;;;;;4.97;1.63;;;10.80;99.90;;;;;;5056297;28;20227;-78
2023/11/07 06:44:32;;;;;;;3.65;2.28;;;10.90;99.90;;;;;;5056143;28;20228;-78
2023/11/07 06:46:59;;;;;;;2.75;1.50;;;10.90;99.90;;;;;;5055536;28;20251;-78
2023/11/07 06:49:30;;;;;;;2.45;1.40;;;10.90;99.90;;;;;;5056615;28;20551;-78
2023/11/07 06:51:59;;;;;;;2.42;1.52;;;10.90;99.90;;;;;;5055714;28;20263;-79
2023/11/07 06:54:27;;;;;;;4.90;2.28;;;11.00;99.90;;;;;;5055988;28;20220;-80
2023/11/07 06:56:53;;;;;;;3.80;1.30;;;11.00;99.90;;;;;;5056119;28;20678;-78
2023/11/07 06:59:22;;;;;;;1.75;1.30;;;11.00;99.90;;;;;;5056262;28;20248;-78
2023/11/07 07:01:49;;;;;;;6.35;2.25;;;11.00;99.90;;;;;;5056362;28;20256;-79
2023/11/07 07:04:16;;;;;;;6.72;4.35;;;11.00;99.90;;;;;;5054953;28;20228;-79
2023/11/07 07:06:43;;;;;;;5.63;5.18;;;11.00;99.90;;;;;;5056211;28;20220;-77
2023/11/07 07:09:10;;;;;;;7.15;6.10;;;11.00;99.90;;;;;;5055395;28;20251;-77
2023/11/07 07:11:38;;;;;;;5.68;4.20;;;11.00;99.90;;;;;;5056018;28;20311;-78
2023/11/07 07:14:05;;;;;;;8.93;3.85;;;11.00;99.90;;;;;;5055127;28;20567;-77
2023/11/07 07:16:33;;;;;;;4.45;3.05;;;11.00;99.90;;;;;;5055955;28;20231;-77
2023/11/07 07:19:06;;;;;;;6.13;4.63;;;11.00;99.90;;;;;;5055458;28;20278;-78
2023/11/07 07:21:34;;;;;;;5.55;4.63;;;11.00;99.90;;;;;;5056077;28;20221;-77
2023/11/07 07:24:15;;;;;;;3.05;2.75;;;11.10;99.90;;;;;;5055619;28;20312;-78
2023/11/07 07:26:43;;;;;;;3.80;2.33;;;11.10;99.90;;;;;;5055744;28;20225;-77
2023/11/07 07:29:13;;;;;;;8.57;3.75;;;11.10;99.90;;;;;;5055302;28;20565;-77
2023/11/07 07:31:44;;;;;;;8.57;4.90;;;11.10;99.90;;;;;;5055253;28;20546;-78
2023/11/07 07:34:12;;;;;;;4.35;3.08;;;11.10;99.90;;;;;;5054700;28;20224;-77
2023/11/07 07:36:44;;;;;;;4.10;3.33;;;11.10;99.90;;;;;;5055593;28;20694;-77
2023/11/07 07:39:27;;;;;;;7.22;2.78;;;11.10;99.90;;;;;;5055001;28;20227;-77
2023/11/07 07:41:56;;;;;;;2.22;2.00;;;11.10;99.90;;;;;;5055544;28;20228;-77
2023/11/07 07:44:24;;;;;;;2.28;2.00;;;11.10;99.90;;;;;;5053551;28;20243;-79
2023/11/07 07:46:53;;;;;;;2.58;2.00;;;11.20;99.90;;;;;;5055783;28;20229;-77
2023/11/07 07:49:23;;;;;;;2.40;1.60;;;11.10;99.90;;;;;;5054749;28;20232;-77
2023/11/07 07:51:52;;;;;;;4.90;2.95;;;11.20;99.90;;;;;;5055553;28;20229;-77
2023/11/07 07:54:22;;;;;;;3.22;2.30;;;11.20;99.90;;;;;;5054694;28;20569;-77
2023/11/07 07:56:50;;;;;;;4.03;2.70;;;11.30;99.90;;;;;;5055507;28;20296;-77
2023/11/07 07:59:23;;;;;;;2.85;1.85;;;11.20;99.90;;;;;;5054301;28;20255;-77
2023/11/07 08:01:58;;;;;;;3.72;2.65;;;11.30;99.90;;;;;;5055139;28;20216;-77
2023/11/07 08:04:26;;;;;;;2.63;1.70;;;11.30;99.90;;;;;;5054316;28;20251;-77
2023/11/07 08:06:54;;;;;;;4.20;2.30;;;11.40;99.90;;;;;;5055199;28;20308;-78
2023/11/07 08:09:22;;;;;;;2.55;2.10;;;11.40;99.90;;;;;;5054409;28;20224;-77
2023/11/07 08:11:53;;;;;;;9.23;4.55;;;11.50;99.90;;;;;;5054999;28;20569;-77
2023/11/07 08:14:30;;;;;;;4.10;3.33;;;11.50;99.90;;;;;;5052182;28;20221;-78
2023/11/07 08:16:58;;;;;;;3.20;2.03;;;11.60;99.90;;;;;;5054444;28;20220;-78
2023/11/07 08:19:28;;;;;;;5.80;3.88;;;11.60;99.90;;;;;;5054472;28;20576;-79
2023/11/07 08:21:55;;;;;;;11.88;9.80;;;11.70;99.90;;;;;;5054615;28;20290;-78
2023/11/07 08:24:22;;;;;;;7.00;4.30;;;11.70;99.90;;;;;;5053990;28;20312;-78
2023/11/07 08:26:50;;;;;;;4.63;3.55;;;11.70;99.90;;;;;;5054705;28;20243;-78
2023/11/07 08:29:17;;;;;;;5.13;3.58;;;11.70;99.90;;;;;;5053788;28;20342;-79
2023/11/07 08:31:44;;;;;;;5.13;3.05;;;11.70;99.90;;;;;;5054927;28;20220;-78
2023/11/07 08:34:12;;;;;;;4.18;2.42;;;11.80;99.90;;;;;;5053670;28;20304;-79
2023/11/07 08:36:40;;;;;;;2.70;1.77;;;11.80;99.90;;;;;;5054299;28;20227;-79
2023/11/07 08:39:16;;;;;;;2.22;2.00;;;11.80;99.90;;;;;;5054087;28;20239;-79
2023/11/07 08:41:44;;;;;;;2.50;1.65;;;11.90;99.90;;;;;;5054700;28;20216;-79
2023/11/07 08:44:11;;;;;;;2.58;2.38;;;11.90;99.90;;;;;;5054147;28;20749;-79
2023/11/07 08:46:38;;;;;;;4.15;2.50;;;12.00;99.90;;;;;;5052248;28;20581;-78
2023/11/07 08:49:05;;;;;;;3.78;1.63;;;12.10;99.90;;;;;;5054565;28;20242;-78
2023/11/07 08:51:33;;;;;;;3.75;2.00;;;12.20;99.90;;;;;;5054114;28;20591;-78
2023/11/07 08:54:00;;;;;;;3.72;1.55;;;12.20;99.90;;;;;;5053731;28;20304;-78
2023/11/07 08:56:27;;;;;;;2.63;2.40;;;12.20;99.90;;;;;;5053571;28;20713;-79
2023/11/07 08:58:55;;;;;;;2.05;1.85;;;12.30;99.90;;;;;;5054266;28;20311;-79
2023/11/07 09:01:22;;;;;;;2.53;1.67;;;12.40;99.90;;;;;;5053465;28;20221;-79
2023/11/07 09:03:49;;;;;;;2.88;2.00;;;12.40;99.90;;;;;;5053971;28;20236;-78
2023/11/07 09:06:20;;;;;;;3.38;1.92;;;12.50;99.90;;;;;;5054095;28;20241;-79
2023/11/07 09:08:48;;;;;;;3.65;1.60;;;12.60;99.90;;;;;;5053609;28;20654;-79
2023/11/07 09:11:15;;;;;;;3.35;1.88;;;12.70;99.90;;;;;;5054105;28;20239;-79
2023/11/07 09:13:41;;;;;;;1.50;1.33;;;12.70;99.90;;;;;;5052725;28;20715;-79
2023/11/07 09:16:09;;;;;;;1.45;1.35;;;12.80;99.90;;;;;;5053658;28;20229;-78
2023/11/07 09:18:41;;;;;;;3.17;1.60;;;12.80;99.90;;;;;;5052993;28;20283;-79
2023/11/07 09:21:08;;;;;;;2.30;1.55;;;12.90;99.90;;;;;;5053098;28;20283;-79
2023/11/07 09:23:37;;;;;;;2.20;1.30;;;13.00;99.90;;;;;;5052929;28;20232;-79
2023/11/07 09:26:06;;;;;;;1.92;1.38;;;13.10;99.90;;;;;;5053654;28;20467;-79
2023/11/07 09:28:33;;;;;;;1.33;1.23;;;13.20;99.90;;;;;;5052851;28;20544;-79
2023/11/07 09:31:00;;;;;;;2.30;2.00;;;13.30;99.90;;;;;;5053777;28;20803;-79
2023/11/07 09:33:26;;;;;;;3.93;1.77;;;13.50;99.90;;;;;;5053291;28;20464;-79
2023/11/07 09:35:53;;;;;;;1.87;1.10;;;13.50;99.90;;;;;;5053373;28;20810;-77
2023/11/07 09:38:20;;;;;;;3.40;2.40;;;13.60;99.90;;;;;;5053414;28;20550;-77
2023/11/07 09:40:47;;;;;;;2.50;1.93;;;13.70;99.90;;;;;;5052800;28;20447;-77
2023/11/07 09:43:16;;;;;;;3.30;1.87;;;13.80;99.90;;;;;;5053330;28;20957;-77
2023/11/07 09:45:45;;;;;;;2.67;2.10;;;13.80;99.90;;;;;;5052131;28;20514;-78
2023/11/07 09:48:13;;;;;;;6.10;3.57;;;13.80;99.90;;;;;;5053306;28;20528;-79
2023/11/07 09:50:43;;;;;;;7.90;4.90;;;13.90;99.90;;;;;;5052849;28;20475;-79
2023/11/07 09:53:15;;;;;;;8.43;4.43;;;13.90;99.90;;;;;;5053312;28;20465;-79
2023/11/07 09:55:42;;;;;;;4.20;3.63;;;13.90;99.90;;;;;;5052680;28;20467;-79
2023/11/07 09:58:14;;;;;;;2.93;2.63;;;14.00;99.90;;;;;;5052922;28;20467;-79
2023/11/07 10:00:44;;;;;;;1.63;1.53;;;14.00;99.90;;;;;;5052601;28;20463;-79
2023/11/07 10:03:13;;;;;;;3.93;2.13;;;14.10;99.90;;;;;;5053244;28;20478;-79
2023/11/07 10:05:41;;;;;;;2.90;1.53;;;14.10;99.90;;;;;;5052316;28;20467;-79
2023/11/07 10:08:08;;;;;;;2.00;1.80;;;14.10;99.90;;;;;;5053015;28;20463;-79
2023/11/07 10:10:35;;;;;;;2.90;1.87;;;14.10;99.90;;;;;;5052592;28;20499;-79
2023/11/07 10:13:12;;;;;;;2.20;1.80;;;14.10;99.90;;;;;;5053018;28;20467;-79
2023/11/07 10:15:39;;;;;;;4.60;1.70;;;14.10;99.90;;;;;;5052422;28;20565;-79
2023/11/07 10:18:10;;;;;;;1.97;1.43;;;14.00;99.90;;;;;;5053240;28;20558;-79
2023/11/07 10:20:49;;;;;;;2.57;1.60;;;14.10;99.90;;;;;;5052638;28;20550;-79
2023/11/07 10:23:16;;;;;;;4.37;1.87;;;14.00;99.90;;;;;;5053100;28;20780;-79
2023/11/07 10:25:49;;;;;;;1.90;1.63;;;13.90;99.90;;;;;;5052226;28;20467;-79
2023/11/07 10:28:17;;;;;;;1.80;1.50;;;14.00;99.90;;;;;;5052713;28;20503;-79
2023/11/07 10:30:45;;;;;;;3.30;1.70;;;13.90;99.90;;;;;;5053367;28;20479;-79
2023/11/07 10:33:27;;;;;;;2.40;1.50;;;14.00;99.90;;;;;;5052533;28;20495;-77
2023/11/07 10:35:55;;;;;;;2.33;1.53;;;14.00;99.90;;;;;;5051973;28;20467;-77
2023/11/07 10:38:23;;;;;;;3.20;1.80;;;14.10;99.90;;;;;;5051480;28;20460;-78
2023/11/07 10:40:50;;;;;;;2.13;1.50;;;14.10;99.90;;;;;;5052749;28;20459;-77
2023/11/07 10:43:32;;;;;;;3.30;1.70;;;14.20;99.90;;;;;;5052295;28;20785;-77
2023/11/07 10:46:02;;;;;;;3.90;2.27;;;14.20;99.90;;;;;;5052787;28;20467;-77
2023/11/07 10:48:53;;;;;;;29.50;13.57;;;14.30;99.90;;;;;;5046999;28;20469;-80
2023/11/07 10:51:21;;;;;;;18.77;8.43;;;14.20;99.90;;;;;;5051344;28;20838;-77
2023/11/07 10:53:48;;;;;;;8.73;5.47;;;14.20;99.90;;;;;;5046616;28;20483;-80
2023/11/07 10:56:18;;;;;;;6.63;4.70;;;14.20;99.90;;;;;;5035909;28;20475;-81
2023/11/07 10:58:52;;;;;;;5.23;2.90;;;14.20;99.90;;;;;;5031791;28;20721;-81
2023/11/07 11:01:50;;;;;;;;;;;;;;;;;;;;;
2023/11/07 11:04:23;;;;;;;3.97;2.37;;;14.10;99.90;;;;;;5031884;28;20468;-80
2023/11/07 11:06:54;;;;;;;2.23;1.77;;;14.10;99.90;;;;;;5031678;28;20468;-78
2023/11/07 11:09:23;;;;;;;4.20;1.63;;;14.10;99.90;;;;;;5032907;28;21021;-77
2023/11/07 11:11:52;;;;;;;1.37;1.20;;;14.10;99.90;;;;;;5036363;28;20476;-77
2023/11/07 11:14:20;;;;;;;1.90;1.50;;;14.10;99.90;;;;;;5035351;28;20563;-77
2023/11/07 11:16:48;;;;;;;3.20;1.70;;;14.10;99.90;;;;;;5036113;28;20483;-78
2023/11/07 11:19:27;;;;;;;2.90;1.40;;;14.20;99.90;;;;;;5035752;28;20564;-80
2023/11/07 11:21:59;;;;;;;3.10;1.90;;;14.20;99.90;;;;;;5036427;28;20475;-78
2023/11/07 11:24:38;;;;;;;1.70;1.17;;;14.20;99.90;;;;;;5035147;28;20886;-78
2023/11/07 11:27:12;;;;;;;3.33;1.63;;;14.20;99.90;;;;;;5035684;28;20522;-78
2023/11/07 11:29:46;;;;;;;1.67;1.10;;;14.20;99.90;;;;;;5035498;28;20516;-80
2023/11/07 11:32:29;;;;;;;3.70;1.77;;;14.10;99.90;;;;;;5035773;28;20472;-80
2023/11/07 11:35:30;;;;;;;3.13;1.27;;;14.10;99.90;;;;;;5035496;28;20463;-80
2023/11/07 11:38:19;;;;;;;1.90;1.30;;;14.10;99.90;;;;;;5034897;28;20958;-80
2023/11/07 11:40:56;;;;;;;2.13;0.80;;;14.10;99.90;;;;;;5035301;28;20547;-80
2023/11/07 11:43:26;;;;;;;2.23;1.10;;;14.10;99.90;;;;;;5034944;28;20544;-80
2023/11/07 11:45:58;;;;;;;2.30;0.90;;;14.20;99.90;;;;;;5035268;28;20468;-80
2023/11/07 11:48:58;;;;;;;3.50;1.70;;;14.20;99.90;;;;;;5034443;28;20452;-80
2023/11/07 11:51:36;;;;;;;1.93;1.17;;;14.30;99.90;;;;;;5033650;28;20463;-80
2023/11/07 11:54:03;;;;;;;3.10;1.50;;;14.30;99.90;;;;;;5034273;28;20467;-80
2023/11/07 11:56:31;;;;;;;1.60;1.30;;;14.30;99.90;;;;;;5035004;28;20623;-81
2023/11/07 11:59:09;;;;;;;2.57;1.53;;;14.40;99.90;;;;;;5035285;28;20471;-80
2023/11/07 12:01:49;;;;;;;1.87;1.77;;;14.40;99.90;;;;;;5034997;28;20547;-80
2023/11/07 12:04:30;;;;;;;1.40;1.20;;;14.50;99.90;;;;;;5034735;28;20530;-80
2023/11/07 12:07:23;;;;;;;2.30;2.10;;;14.60;99.90;;;;;;5035030;28;20468;-81
2023/11/07 12:09:52;;;;;;;3.07;1.10;;;14.60;99.90;;;;;;5035626;28;20460;-82
2023/11/07 12:12:20;;;;;;;1.60;1.20;;;14.60;99.90;;;;;;5034759;28;20793;-81
2023/11/07 12:14:52;;;;;;;2.90;1.53;;;14.60;99.90;;;;;;5024110;28;20526;-81
2023/11/07 12:17:19;;;;;;;4.40;1.00;;;14.60;99.90;;;;;;5034096;28;20528;-81
2023/11/07 12:19:46;;;;;;;2.07;1.10;;;14.60;99.90;;;;;;5034897;28;21034;-81
2023/11/07 12:22:13;;;;;;;3.60;1.17;;;14.60;99.90;;;;;;5034478;28;20544;-80
2023/11/07 12:24:41;;;;;;;1.57;1.10;;;14.60;99.90;;;;;;5034733;28;20475;-81
2023/11/07 12:27:08;;;;;;;7.03;1.47;;;14.60;99.90;;;;;;5034312;28;20472;-78
2023/11/07 12:29:36;;;;;;;3.60;1.30;;;14.70;99.90;;;;;;5034940;28;20464;-79
2023/11/07 12:32:04;;;;;;;1.87;1.47;;;14.60;99.90;;;;;;5034087;28;20978;-78
2023/11/07 12:34:32;;;;;;;5.27;1.60;;;14.60;99.90;;;;;;5034312;28;20490;-78
2023/11/07 12:37:00;;;;;;;1.70;1.23;;;14.60;99.90;;;;;;5034705;28;20491;-79
2023/11/07 12:39:27;;;;;;;3.70;1.30;;;14.70;99.90;;;;;;5034123;28;20468;-78
2023/11/07 12:41:56;;;;;;;3.73;1.30;;;14.60;99.90;;;;;;5034647;28;20783;-79
2023/11/07 12:44:23;;;;;;;1.90;1.70;;;14.60;99.90;;;;;;5034294;28;20455;-79
2023/11/07 12:46:50;;;;;;;2.87;1.57;;;14.70;99.90;;;;;;5034542;28;20543;-78
2023/11/07 12:49:18;;;;;;;4.40;1.97;;;14.70;99.90;;;;;;5033533;28;20482;-79
2023/11/07 12:51:46;;;;;;;1.63;1.30;;;14.70;99.90;;;;;;5034638;28;20526;-79
2023/11/07 12:54:13;;;;;;;2.63;1.27;;;14.80;99.90;;;;;;5032203;28;20488;-79
2023/11/07 12:56:44;;;;;;;3.17;1.17;;;14.70;99.90;;;;;;5034077;28;20499;-81